sensor_id;sensor_type;location;lat;lon;timestamp;pressure;altitude;pressure_sealevel;temperature;humidity
19023;BME280;35226;48.606;8.858;2022-08-30T00:01:01;96511.94;;;20.89;90.67
19023;BME280;35226;48.606;8.858;2022-08-30T00:03:37;96507.31;;;20.81;92.20
19023;BME280;35226;48.606;8.858;2022-08-30T00:06:05;96502.22;;;20.79;92.99
19023;BME280;35226;48.606;8.858;2022-08-30T00:08:33;96513.47;;;20.85;91.39
19023;BME280;35226;48.606;8.858;2022-08-30T00:10:59;96514.69;;;20.67;93.85
19023;BME280;35226;48.606;8.858;2022-08-30T00:13:26;96521.06;;;20.67;94.65
19023;BME280;35226;48.606;8.858;2022-08-30T00:15:52;96516.44;;;20.59;95.81
19023;BME280;35226;48.606;8.858;2022-08-30T00:18:18;96511.81;;;20.50;96.95
19023;BME280;35226;48.606;8.858;2022-08-30T00:20:45;96512.09;;;20.47;97.23
19023;BME280;35226;48.606;8.858;2022-08-30T00:23:12;96505.16;;;20.48;97.68
19023;BME280;35226;48.606;8.858;2022-08-30T00:25:38;96509.50;;;20.49;96.14
19023;BME280;35226;48.606;8.858;2022-08-30T00:28:04;96507.47;;;20.44;96.77
19023;BME280;35226;48.606;8.858;2022-08-30T00:30:30;96516.91;;;20.46;96.79
19023;BME280;35226;48.606;8.858;2022-08-30T00:32:55;96516.63;;;20.39;97.93
19023;BME280;35226;48.606;8.858;2022-08-30T00:35:22;96516.13;;;20.40;97.27
19023;BME280;35226;48.606;8.858;2022-08-30T00:37:48;96515.88;;;20.44;96.75
19023;BME280;35226;48.606;8.858;2022-08-30T00:40:16;96514.84;;;20.41;97.81
19023;BME280;35226;48.606;8.858;2022-08-30T00:42:43;96518.41;;;20.42;97.78
19023;BME280;35226;48.606;8.858;2022-08-30T00:47:39;96518.69;;;20.44;95.95
19023;BME280;35226;48.606;8.858;2022-08-30T00:50:05;96520.19;;;20.39;97.45
19023;BME280;35226;48.606;8.858;2022-08-30T00:52:34;96521.91;;;20.25;99.76
19023;BME280;35226;48.606;8.858;2022-08-30T00:55:00;96524.44;;;20.23;99.84
19023;BME280;35226;48.606;8.858;2022-08-30T00:57:27;96525.69;;;20.22;100.00
19023;BME280;35226;48.606;8.858;2022-08-30T00:59:54;96522.13;;;20.22;99.71
19023;BME280;35226;48.606;8.858;2022-08-30T01:02:21;96526.97;;;20.21;100.00
19023;BME280;35226;48.606;8.858;2022-08-30T01:04:48;96529.19;;;20.06;100.00
19023;BME280;35226;48.606;8.858;2022-08-30T01:07:16;96523.59;;;20.06;100.00
19023;BME280;35226;48.606;8.858;2022-08-30T01:09:42;96526.38;;;20.06;100.00
19023;BME280;35226;48.606;8.858;2022-08-30T01:12:09;96523.00;;;19.97;100.00
19023;BME280;35226;48.606;8.858;2022-08-30T01:14:35;96518.94;;;19.98;100.00
19023;BME280;35226;48.606;8.858;2022-08-30T01:17:02;96512.03;;;19.93;100.00
19023;BME280;35226;48.606;8.858;2022-08-30T01:19:38;96516.59;;;19.90;100.00
19023;BME280;35226;48.606;8.858;2022-08-30T01:22:25;96524.69;;;19.83;100.00
19023;BME280;35226;48.606;8.858;2022-08-30T01:24:55;96528.81;;;19.87;100.00
19023;BME280;35226;48.606;8.858;2022-08-30T01:27:22;96528.78;;;19.82;100.00
19023;BME280;35226;48.606;8.858;2022-08-30T01:29:49;96524.16;;;19.79;100.00
19023;BME280;35226;48.606;8.858;2022-08-30T01:32:17;96523.16;;;19.82;100.00
19023;BME280;35226;48.606;8.858;2022-08-30T01:34:44;96526.94;;;19.73;100.00
19023;BME280;35226;48.606;8.858;2022-08-30T01:37:25;96525.38;;;19.72;100.00
19023;BME280;35226;48.606;8.858;2022-08-30T01:39:52;96528.47;;;19.74;100.00
19023;BME280;35226;48.606;8.858;2022-08-30T01:42:18;96528.47;;;19.74;100.00
19023;BME280;35226;48.606;8.858;2022-08-30T01:44:44;96525.66;;;19.74;100.00
19023;BME280;35226;48.606;8.858;2022-08-30T01:47:11;96518.53;;;19.73;100.00
19023;BME280;35226;48.606;8.858;2022-08-30T01:49:38;96514.19;;;19.72;100.00
19023;BME280;35226;48.606;8.858;2022-08-30T01:52:05;96527.91;;;19.70;100.00
19023;BME280;35226;48.606;8.858;2022-08-30T01:54:33;96516.19;;;19.66;100.00
19023;BME280;35226;48.606;8.858;2022-08-30T01:57:01;96515.59;;;19.56;100.00
19023;BME280;35226;48.606;8.858;2022-08-30T01:59:27;96515.91;;;19.64;100.00
19023;BME280;35226;48.606;8.858;2022-08-30T02:01:53;96512.59;;;19.66;100.00
19023;BME280;35226;48.606;8.858;2022-08-30T02:04:19;96522.78;;;19.63;100.00
19023;BME280;35226;48.606;8.858;2022-08-30T02:06:44;96518.44;;;19.62;100.00
19023;BME280;35226;48.606;8.858;2022-08-30T02:09:11;96516.91;;;19.61;100.00
19023;BME280;35226;48.606;8.858;2022-08-30T02:11:37;96518.91;;;19.55;100.00
19023;BME280;35226;48.606;8.858;2022-08-30T02:14:04;96522.47;;;19.55;100.00
19023;BME280;35226;48.606;8.858;2022-08-30T02:16:31;96516.03;;;19.49;100.00
19023;BME280;35226;48.606;8.858;2022-08-30T02:18:56;96516.75;;;19.44;100.00
19023;BME280;35226;48.606;8.858;2022-08-30T02:21:23;96519.72;;;19.35;100.00
19023;BME280;35226;48.606;8.858;2022-08-30T02:23:50;96512.59;;;19.34;100.00
19023;BME280;35226;48.606;8.858;2022-08-30T02:26:16;96516.66;;;19.33;100.00
19023;BME280;35226;48.606;8.858;2022-08-30T02:28:42;96516.38;;;19.31;100.00
19023;BME280;35226;48.606;8.858;2022-08-30T02:31:08;96512.28;;;19.27;100.00
19023;BME280;35226;48.606;8.858;2022-08-30T02:33:34;96517.88;;;19.27;100.00
19023;BME280;35226;48.606;8.858;2022-08-30T02:35:59;96512.28;;;19.27;100.00
19023;BME280;35226;48.606;8.858;2022-08-30T02:38:25;96508.91;;;19.22;100.00
19023;BME280;35226;48.606;8.858;2022-08-30T02:40:51;96507.88;;;19.20;100.00
19023;BME280;35226;48.606;8.858;2022-08-30T02:43:17;96508.38;;;19.18;100.00
19023;BME280;35226;48.606;8.858;2022-08-30T02:45:43;96506.84;;;19.17;100.00
19023;BME280;35226;48.606;8.858;2022-08-30T02:48:09;96501.25;;;19.17;100.00
19023;BME280;35226;48.606;8.858;2022-08-30T02:50:41;96497.84;;;19.08;100.00
19023;BME280;35226;48.606;8.858;2022-08-30T02:53:07;96497.56;;;19.06;100.00
19023;BME280;35226;48.606;8.858;2022-08-30T02:55:32;96488.56;;;18.96;100.00
19023;BME280;35226;48.606;8.858;2022-08-30T02:57:58;96490.31;;;18.94;100.00
19023;BME280;35226;48.606;8.858;2022-08-30T03:00:24;96487.59;;;18.99;100.00
19023;BME280;35226;48.606;8.858;2022-08-30T03:02:49;96485.44;;;18.89;100.00
19023;BME280;35226;48.606;8.858;2022-08-30T03:05:16;96487.38;;;18.77;100.00
19023;BME280;35226;48.606;8.858;2022-08-30T03:07:42;96479.06;;;18.62;100.00
19023;BME280;35226;48.606;8.858;2022-08-30T03:10:10;96484.78;;;18.53;100.00
19023;BME280;35226;48.606;8.858;2022-08-30T03:12:36;96482.97;;;18.50;100.00
19023;BME280;35226;48.606;8.858;2022-08-30T03:15:04;96481.69;;;18.51;100.00
19023;BME280;35226;48.606;8.858;2022-08-30T03:17:30;96476.38;;;18.53;100.00
19023;BME280;35226;48.606;8.858;2022-08-30T03:19:56;96474.03;;;18.46;100.00
19023;BME280;35226;48.606;8.858;2022-08-30T03:22:24;96469.41;;;18.63;100.00
19023;BME280;35226;48.606;8.858;2022-08-30T03:24:50;96469.47;;;18.69;100.00
19023;BME280;35226;48.606;8.858;2022-08-30T03:27:15;96472.47;;;18.65;100.00
19023;BME280;35226;48.606;8.858;2022-08-30T03:29:41;96475.69;;;18.78;100.00
19023;BME280;35226;48.606;8.858;2022-08-30T03:32:07;96482.25;;;18.75;100.00
19023;BME280;35226;48.606;8.858;2022-08-30T03:34:32;96479.66;;;18.72;100.00
19023;BME280;35226;48.606;8.858;2022-08-30T03:36:58;96477.16;;;18.74;100.00
19023;BME280;35226;48.606;8.858;2022-08-30T03:39:25;96478.06;;;18.65;100.00
19023;BME280;35226;48.606;8.858;2022-08-30T03:41:51;96479.06;;;18.62;100.00
19023;BME280;35226;48.606;8.858;2022-08-30T03:44:19;96470.16;;;18.64;100.00
19023;BME280;35226;48.606;8.858;2022-08-30T03:46:45;96475.75;;;18.64;100.00
19023;BME280;35226;48.606;8.858;2022-08-30T03:49:10;96471.66;;;18.59;100.00
19023;BME280;35226;48.606;8.858;2022-08-30T03:51:36;96477.44;;;18.56;100.00
19023;BME280;35226;48.606;8.858;2022-08-30T03:54:02;96468.00;;;18.53;100.00
19023;BME280;35226;48.606;8.858;2022-08-30T03:56:27;96469.53;;;18.54;100.00
19023;BME280;35226;48.606;8.858;2022-08-30T03:58:53;96463.94;;;18.54;100.00
19023;BME280;35226;48.606;8.858;2022-08-30T04:01:19;96476.47;;;18.38;100.00
19023;BME280;35226;48.606;8.858;2022-08-30T04:03:44;96471.56;;;18.33;100.00
19023;BME280;35226;48.606;8.858;2022-08-30T04:06:10;96477.41;;;18.30;100.00
19023;BME280;35226;48.606;8.858;2022-08-30T04:08:36;96467.66;;;18.25;100.00
19023;BME280;35226;48.606;8.858;2022-08-30T04:11:01;96475.25;;;18.19;100.00
19023;BME280;35226;48.606;8.858;2022-08-30T04:13:27;96476.50;;;18.18;100.00
19023;BME280;35226;48.606;8.858;2022-08-30T04:15:54;96483.13;;;18.21;100.00
19023;BME280;35226;48.606;8.858;2022-08-30T04:18:20;96483.63;;;18.19;100.00
19023;BME280;35226;48.606;8.858;2022-08-30T04:20:45;96482.56;;;18.17;100.00
19023;BME280;35226;48.606;8.858;2022-08-30T04:23:12;96492.22;;;18.16;100.00
19023;BME280;35226;48.606;8.858;2022-08-30T04:25:39;96489.22;;;18.19;100.00
19023;BME280;35226;48.606;8.858;2022-08-30T04:28:06;96495.84;;;18.22;100.00
19023;BME280;35226;48.606;8.858;2022-08-30T04:30:33;96497.25;;;18.11;100.00
19023;BME280;35226;48.606;8.858;2022-08-30T04:32:59;96493.91;;;18.07;100.00
19023;BME280;35226;48.606;8.858;2022-08-30T04:35:25;96493.13;;;18.07;100.00
19023;BME280;35226;48.606;8.858;2022-08-30T04:37:51;96492.16;;;18.10;100.00
19023;BME280;35226;48.606;8.858;2022-08-30T04:40:17;96497.25;;;18.11;100.00
19023;BME280;35226;48.606;8.858;2022-08-30T04:42:42;96497.47;;;18.08;100.00
19023;BME280;35226;48.606;8.858;2022-08-30T04:45:12;96497.38;;;18.02;100.00
19023;BME280;35226;48.606;8.858;2022-08-30T04:47:40;96501.03;;;18.08;100.00
19023;BME280;35226;48.606;8.858;2022-08-30T04:50:07;96503.81;;;18.08;100.00
19023;BME280;35226;48.606;8.858;2022-08-30T04:52:32;96498.53;;;18.10;100.00
19023;BME280;35226;48.606;8.858;2022-08-30T04:54:58;96510.38;;;18.05;100.00
19023;BME280;35226;48.606;8.858;2022-08-30T04:57:27;96506.81;;;18.05;100.00
19023;BME280;35226;48.606;8.858;2022-08-30T04:59:54;96515.78;;;18.09;100.00
19023;BME280;35226;48.606;8.858;2022-08-30T05:02:20;96512.41;;;18.05;100.00
19023;BME280;35226;48.606;8.858;2022-08-30T05:04:46;96524.03;;;18.18;100.00
19023;BME280;35226;48.606;8.858;2022-08-30T05:07:31;96521.25;;;18.18;100.00
19023;BME280;35226;48.606;8.858;2022-08-30T05:09:57;96525.78;;;18.16;100.00
19023;BME280;35226;48.606;8.858;2022-08-30T05:12:23;96515.78;;;18.09;100.00
19023;BME280;35226;48.606;8.858;2022-08-30T05:14:49;96522.06;;;18.04;100.00
19023;BME280;35226;48.606;8.858;2022-08-30T05:17:14;96518.28;;;18.07;100.00
19023;BME280;35226;48.606;8.858;2022-08-30T05:19:40;96525.00;;;18.15;100.00
19023;BME280;35226;48.606;8.858;2022-08-30T05:22:06;96531.06;;;18.13;100.00
19023;BME280;35226;48.606;8.858;2022-08-30T05:24:33;96526.25;;;18.14;100.00
19023;BME280;35226;48.606;8.858;2022-08-30T05:26:58;96523.41;;;18.08;100.00
19023;BME280;35226;48.606;8.858;2022-08-30T05:29:24;96527.03;;;18.15;100.00
19023;BME280;35226;48.606;8.858;2022-08-30T05:31:49;96522.28;;;18.21;100.00
19023;BME280;35226;48.606;8.858;2022-08-30T05:34:15;96523.06;;;18.21;100.00
19023;BME280;35226;48.606;8.858;2022-08-30T05:36:41;96524.81;;;18.19;100.00
19023;BME280;35226;48.606;8.858;2022-08-30T05:39:09;96519.75;;;18.23;100.00
19023;BME280;35226;48.606;8.858;2022-08-30T05:41:36;96521.53;;;18.20;100.00
19023;BME280;35226;48.606;8.858;2022-08-30T05:44:03;96520.28;;;18.21;100.00
19023;BME280;35226;48.606;8.858;2022-08-30T05:46:30;96519.06;;;18.28;100.00
19023;BME280;35226;48.606;8.858;2022-08-30T05:48:59;96520.91;;;18.31;100.00
19023;BME280;35226;48.606;8.858;2022-08-30T05:51:29;96517.25;;;18.45;100.00
19023;BME280;35226;48.606;8.858;2022-08-30T05:53:56;96517.25;;;18.45;100.00
19023;BME280;35226;48.606;8.858;2022-08-30T05:56:30;96524.06;;;18.59;100.00
19023;BME280;35226;48.606;8.858;2022-08-30T05:58:56;96516.97;;;18.63;100.00
19023;BME280;35226;48.606;8.858;2022-08-30T06:01:25;96524.44;;;18.72;100.00
19023;BME280;35226;48.606;8.858;2022-08-30T06:03:53;96527.97;;;18.67;100.00
19023;BME280;35226;48.606;8.858;2022-08-30T06:06:19;96527.53;;;18.74;100.00
19023;BME280;35226;48.606;8.858;2022-08-30T06:08:45;96522.69;;;18.74;100.00
19023;BME280;35226;48.606;8.858;2022-08-30T06:11:18;96520.34;;;18.93;100.00
19023;BME280;35226;48.606;8.858;2022-08-30T06:13:45;96524.91;;;18.91;100.00
19023;BME280;35226;48.606;8.858;2022-08-30T06:16:12;96525.78;;;19.02;100.00
19023;BME280;35226;48.606;8.858;2022-08-30T06:18:38;96522.28;;;19.07;100.00
19023;BME280;35226;48.606;8.858;2022-08-30T06:21:04;96524.53;;;19.03;100.00
19023;BME280;35226;48.606;8.858;2022-08-30T06:23:30;96517.22;;;19.11;100.00
19023;BME280;35226;48.606;8.858;2022-08-30T06:25:56;96523.38;;;19.15;100.00
19023;BME280;35226;48.606;8.858;2022-08-30T06:28:21;96530.38;;;19.31;100.00
19023;BME280;35226;48.606;8.858;2022-08-30T06:30:47;96526.31;;;19.32;100.00
19023;BME280;35226;48.606;8.858;2022-08-30T06:33:13;96521.28;;;19.36;100.00
19023;BME280;35226;48.606;8.858;2022-08-30T06:35:38;96519.75;;;19.41;100.00
19023;BME280;35226;48.606;8.858;2022-08-30T06:38:04;96524.53;;;19.61;100.00
19023;BME280;35226;48.606;8.858;2022-08-30T06:40:30;96520.53;;;19.67;100.00
19023;BME280;35226;48.606;8.858;2022-08-30T06:42:58;96528.16;;;19.67;100.00
19023;BME280;35226;48.606;8.858;2022-08-30T06:45:24;96522.38;;;19.76;100.00
19023;BME280;35226;48.606;8.858;2022-08-30T06:47:50;96522.38;;;19.81;100.00
19023;BME280;35226;48.606;8.858;2022-08-30T06:50:16;96525.16;;;19.76;100.00
19023;BME280;35226;48.606;8.858;2022-08-30T06:52:43;96521.19;;;19.93;100.00
19023;BME280;35226;48.606;8.858;2022-08-30T06:55:11;96522.25;;;20.02;100.00
19023;BME280;35226;48.606;8.858;2022-08-30T06:57:37;96524.00;;;19.93;100.00
19023;BME280;35226;48.606;8.858;2022-08-30T07:00:05;96519.31;;;20.16;100.00
19023;BME280;35226;48.606;8.858;2022-08-30T07:02:31;96524.69;;;20.25;100.00
19023;BME280;35226;48.606;8.858;2022-08-30T07:04:57;96528.03;;;20.29;100.00
19023;BME280;35226;48.606;8.858;2022-08-30T07:07:22;96518.97;;;20.46;100.00
19023;BME280;35226;48.606;8.858;2022-08-30T07:09:51;96529.72;;;20.58;100.00
19023;BME280;35226;48.606;8.858;2022-08-30T07:12:18;96532.56;;;20.69;100.00
19023;BME280;35226;48.606;8.858;2022-08-30T07:14:44;96535.38;;;20.69;100.00
19023;BME280;35226;48.606;8.858;2022-08-30T07:17:13;96534.63;;;20.75;100.00
19023;BME280;35226;48.606;8.858;2022-08-30T07:20:00;96531.88;;;20.91;100.00
19023;BME280;35226;48.606;8.858;2022-08-30T07:22:26;96528.56;;;20.98;100.00
19023;BME280;35226;48.606;8.858;2022-08-30T07:24:51;96532.16;;;21.16;100.00
19023;BME280;35226;48.606;8.858;2022-08-30T07:27:17;96520.19;;;21.21;100.00
19023;BME280;35226;48.606;8.858;2022-08-30T07:29:42;96513.25;;;21.16;100.00
19023;BME280;35226;48.606;8.858;2022-08-30T07:32:08;96516.88;;;21.28;100.00
19023;BME280;35226;48.606;8.858;2022-08-30T07:34:33;96524.81;;;21.40;100.00
19023;BME280;35226;48.606;8.858;2022-08-30T07:36:59;96521.75;;;21.44;100.00
19023;BME280;35226;48.606;8.858;2022-08-30T07:39:25;96531.72;;;21.51;100.00
19023;BME280;35226;48.606;8.858;2022-08-30T07:41:50;96532.22;;;21.60;100.00
19023;BME280;35226;48.606;8.858;2022-08-30T07:44:16;96532.47;;;21.79;100.00
19023;BME280;35226;48.606;8.858;2022-08-30T07:46:42;96533.75;;;21.78;100.00
19023;BME280;35226;48.606;8.858;2022-08-30T07:49:08;96542.94;;;21.95;100.00
19023;BME280;35226;48.606;8.858;2022-08-30T07:51:35;96534.75;;;21.97;100.00
19023;BME280;35226;48.606;8.858;2022-08-30T07:54:01;96527.84;;;22.04;100.00
19023;BME280;35226;48.606;8.858;2022-08-30T07:56:26;96531.19;;;22.08;100.00
19023;BME280;35226;48.606;8.858;2022-08-30T07:58:52;96527.81;;;22.15;100.00
19023;BME280;35226;48.606;8.858;2022-08-30T08:01:19;96529.09;;;22.14;100.00
19023;BME280;35226;48.606;8.858;2022-08-30T08:03:45;96535.53;;;22.09;100.00
19023;BME280;35226;48.606;8.858;2022-08-30T08:06:14;96523.97;;;22.29;100.00
19023;BME280;35226;48.606;8.858;2022-08-30T08:08:40;96520.88;;;22.38;100.00
19023;BME280;35226;48.606;8.858;2022-08-30T08:13:39;96516.91;;;22.69;100.00
19023;BME280;35226;48.606;8.858;2022-08-30T08:16:05;96527.31;;;22.91;100.00
19023;BME280;35226;48.606;8.858;2022-08-30T08:18:31;96525.72;;;23.01;100.00
19023;BME280;35226;48.606;8.858;2022-08-30T08:20:58;96519.50;;;23.14;100.00
19023;BME280;35226;48.606;8.858;2022-08-30T08:23:24;96525.06;;;23.25;100.00
19023;BME280;35226;48.606;8.858;2022-08-30T08:25:50;96521.59;;;23.43;100.00
19023;BME280;35226;48.606;8.858;2022-08-30T08:28:16;96518.97;;;23.56;100.00
19023;BME280;35226;48.606;8.858;2022-08-30T08:30:41;96513.78;;;23.60;100.00
19023;BME280;35226;48.606;8.858;2022-08-30T08:33:07;96518.38;;;23.64;100.00
19023;BME280;35226;48.606;8.858;2022-08-30T08:35:33;96521.81;;;23.81;97.94
19023;BME280;35226;48.606;8.858;2022-08-30T08:37:59;96512.69;;;23.99;98.76
19023;BME280;35226;48.606;8.858;2022-08-30T08:40:25;96517.31;;;23.96;100.00
19023;BME280;35226;48.606;8.858;2022-08-30T08:42:57;96504.66;;;24.03;100.00
19023;BME280;35226;48.606;8.858;2022-08-30T08:47:57;96507.56;;;24.22;99.83
19023;BME280;35226;48.606;8.858;2022-08-30T08:50:24;96512.50;;;24.40;98.29
19023;BME280;35226;48.606;8.858;2022-08-30T08:55:51;96513.09;;;24.57;100.00
19023;BME280;35226;48.606;8.858;2022-08-30T08:58:29;96507.88;;;24.61;97.72
19023;BME280;35226;48.606;8.858;2022-08-30T09:00:57;96510.97;;;24.82;97.80
19023;BME280;35226;48.606;8.858;2022-08-30T09:03:25;96507.97;;;24.75;96.31
19023;BME280;35226;48.606;8.858;2022-08-30T09:05:52;96508.00;;;24.93;94.65
19023;BME280;35226;48.606;8.858;2022-08-30T09:08:18;96504.50;;;25.06;97.34
19023;BME280;35226;48.606;8.858;2022-08-30T09:10:59;96497.00;;;25.08;92.42
19023;BME280;35226;48.606;8.858;2022-08-30T09:13:27;96496.22;;;25.08;90.88
19023;BME280;35226;48.606;8.858;2022-08-30T09:15:55;96483.75;;;25.35;91.58
19023;BME280;35226;48.606;8.858;2022-08-30T09:18:46;96487.38;;;25.49;89.05
19023;BME280;35226;48.606;8.858;2022-08-30T09:21:13;96490.88;;;25.55;89.37
19023;BME280;35226;48.606;8.858;2022-08-30T09:23:50;96487.91;;;25.79;78.79
19023;BME280;35226;48.606;8.858;2022-08-30T09:26:41;96488.78;;;25.74;76.39
19023;BME280;35226;48.606;8.858;2022-08-30T09:29:16;96481.94;;;25.96;71.88
19023;BME280;35226;48.606;8.858;2022-08-30T09:31:50;96486.66;;;26.07;68.88
19023;BME280;35226;48.606;8.858;2022-08-30T09:34:21;96490.63;;;26.43;68.91
19023;BME280;35226;48.606;8.858;2022-08-30T09:36:51;96477.94;;;26.58;64.43
19023;BME280;35226;48.606;8.858;2022-08-30T09:42:13;96468.63;;;26.83;59.76
19023;BME280;35226;48.606;8.858;2022-08-30T09:44:39;96463.25;;;27.06;56.34
19023;BME280;35226;48.606;8.858;2022-08-30T09:47:20;96461.63;;;27.11;56.15
19023;BME280;35226;48.606;8.858;2022-08-30T09:49:46;96458.41;;;27.14;55.73
19023;BME280;35226;48.606;8.858;2022-08-30T10:00:24;96452.44;;;27.80;52.71
19023;BME280;35226;48.606;8.858;2022-08-30T10:05:35;96448.22;;;28.02;49.21
19023;BME280;35226;48.606;8.858;2022-08-30T10:08:38;96450.28;;;28.22;51.09
19023;BME280;35226;48.606;8.858;2022-08-30T10:16:42;96447.22;;;28.49;47.24
19023;BME280;35226;48.606;8.858;2022-08-30T10:22:18;96436.91;;;28.74;46.28
19023;BME280;35226;48.606;8.858;2022-08-30T10:24:50;96439.47;;;29.00;48.38
19023;BME280;35226;48.606;8.858;2022-08-30T10:27:28;96436.13;;;29.17;43.88
19023;BME280;35226;48.606;8.858;2022-08-30T10:30:07;96435.25;;;29.37;43.97
19023;BME280;35226;48.606;8.858;2022-08-30T10:32:41;96431.44;;;29.50;41.96
19023;BME280;35226;48.606;8.858;2022-08-30T10:35:14;96432.97;;;29.51;42.59
19023;BME280;35226;48.606;8.858;2022-08-30T10:37:45;96427.28;;;29.43;42.01
19023;BME280;35226;48.606;8.858;2022-08-30T10:40:18;96424.25;;;29.57;39.98
19023;BME280;35226;48.606;8.858;2022-08-30T10:43:08;96417.41;;;29.75;41.78
19023;BME280;35226;48.606;8.858;2022-08-30T10:45:43;96431.06;;;29.92;41.95
19023;BME280;35226;48.606;8.858;2022-08-30T10:48:26;96414.13;;;30.16;40.89
19023;BME280;35226;48.606;8.858;2022-08-30T10:50:57;96419.06;;;30.31;40.32
19023;BME280;35226;48.606;8.858;2022-08-30T10:53:44;96408.78;;;30.36;40.22
19023;BME280;35226;48.606;8.858;2022-08-30T10:56:17;96415.19;;;30.59;39.56
19023;BME280;35226;48.606;8.858;2022-08-30T10:58:46;96413.63;;;30.66;37.53
19023;BME280;35226;48.606;8.858;2022-08-30T11:14:49;96415.16;;;31.14;36.96
19023;BME280;35226;48.606;8.858;2022-08-30T11:17:39;96415.78;;;31.30;35.72
19023;BME280;35226;48.606;8.858;2022-08-30T11:25:52;96424.47;;;31.07;36.32
19023;BME280;35226;48.606;8.858;2022-08-30T11:39:04;96423.91;;;31.09;36.79
19023;BME280;35226;48.606;8.858;2022-08-30T11:44:30;96423.41;;;30.87;37.06
19023;BME280;35226;48.606;8.858;2022-08-30T11:47:00;96421.44;;;30.65;36.78
19023;BME280;35226;48.606;8.858;2022-08-30T11:55:36;96419.00;;;30.46;37.33
19023;BME280;35226;48.606;8.858;2022-08-30T11:58:39;96419.59;;;30.45;37.27
19023;BME280;35226;48.606;8.858;2022-08-30T12:04:25;96413.91;;;30.37;37.65
19023;BME280;35226;48.606;8.858;2022-08-30T12:06:56;96410.09;;;30.42;37.84
19023;BME280;35226;48.606;8.858;2022-08-30T12:12:06;96402.59;;;30.70;37.34
19023;BME280;35226;48.606;8.858;2022-08-30T12:14:46;96411.22;;;30.95;36.38
19023;BME280;35226;48.606;8.858;2022-08-30T12:20:25;96400.97;;;30.92;36.48
19023;BME280;35226;48.606;8.858;2022-08-30T12:22:52;96401.50;;;30.65;37.28
19023;BME280;35226;48.606;8.858;2022-08-30T12:25:32;96398.06;;;30.99;35.98
19023;BME280;35226;48.606;8.858;2022-08-30T12:28:10;96397.44;;;31.41;36.29
19023;BME280;35226;48.606;8.858;2022-08-30T12:30:36;96395.69;;;31.45;36.35
19023;BME280;35226;48.606;8.858;2022-08-30T12:33:09;96395.22;;;31.32;35.95
19023;BME280;35226;48.606;8.858;2022-08-30T12:35:38;96396.41;;;31.53;35.25
19023;BME280;35226;48.606;8.858;2022-08-30T12:38:12;96395.78;;;31.63;34.99
19023;BME280;35226;48.606;8.858;2022-08-30T12:40:49;96393.94;;;31.75;35.83
19023;BME280;35226;48.606;8.858;2022-08-30T12:43:25;96384.63;;;31.74;35.03
19023;BME280;35226;48.606;8.858;2022-08-30T12:45:53;96379.06;;;31.76;35.30
19023;BME280;35226;48.606;8.858;2022-08-30T12:48:20;96379.28;;;32.13;35.00
19023;BME280;35226;48.606;8.858;2022-08-30T12:50:55;96372.22;;;31.96;34.46
19023;BME280;35226;48.606;8.858;2022-08-30T12:53:40;96373.09;;;32.24;35.36
19023;BME280;35226;48.606;8.858;2022-08-30T12:56:09;96365.03;;;32.30;34.36
19023;BME280;35226;48.606;8.858;2022-08-30T13:04:10;96373.69;;;32.22;32.91
19023;BME280;35226;48.606;8.858;2022-08-30T13:06:58;96370.13;;;32.14;34.54
19023;BME280;35226;48.606;8.858;2022-08-30T13:09:35;96360.28;;;32.08;33.35
19023;BME280;35226;48.606;8.858;2022-08-30T13:12:06;96351.72;;;32.08;34.17
19023;BME280;35226;48.606;8.858;2022-08-30T13:14:43;96356.09;;;31.91;33.77
19023;BME280;35226;48.606;8.858;2022-08-30T13:17:20;96342.13;;;31.95;33.68
19023;BME280;35226;48.606;8.858;2022-08-30T13:24:56;96344.72;;;31.42;35.85
19023;BME280;35226;48.606;8.858;2022-08-30T13:27:22;96333.78;;;31.48;36.84
19023;BME280;35226;48.606;8.858;2022-08-30T13:29:48;96327.44;;;31.57;36.57
19023;BME280;35226;48.606;8.858;2022-08-30T13:32:14;96329.66;;;31.83;36.44
19023;BME280;35226;48.606;8.858;2022-08-30T13:34:41;96334.03;;;31.67;36.62
19023;BME280;35226;48.606;8.858;2022-08-30T13:37:07;96336.00;;;31.57;36.84
19023;BME280;35226;48.606;8.858;2022-08-30T13:39:34;96324.94;;;31.61;36.40
19023;BME280;35226;48.606;8.858;2022-08-30T13:42:00;96323.59;;;31.62;36.71
19023;BME280;35226;48.606;8.858;2022-08-30T13:44:26;96319.41;;;31.63;37.08
19023;BME280;35226;48.606;8.858;2022-08-30T13:46:53;96319.59;;;31.40;36.00
19023;BME280;35226;48.606;8.858;2022-08-30T13:49:23;96313.59;;;31.29;36.50
19023;BME280;35226;48.606;8.858;2022-08-30T13:51:49;96318.16;;;31.32;36.72
19023;BME280;35226;48.606;8.858;2022-08-30T13:54:22;96317.28;;;31.21;37.27
19023;BME280;35226;48.606;8.858;2022-08-30T13:56:49;96311.88;;;31.01;36.73
19023;BME280;35226;48.606;8.858;2022-08-30T13:59:15;96307.31;;;30.98;36.52
19023;BME280;35226;48.606;8.858;2022-08-30T14:01:41;96301.03;;;30.99;37.60
19023;BME280;35226;48.606;8.858;2022-08-30T14:04:07;96301.13;;;31.16;36.59
19023;BME280;35226;48.606;8.858;2022-08-30T14:06:33;96298.78;;;30.98;36.86
19023;BME280;35226;48.606;8.858;2022-08-30T14:08:59;96296.88;;;31.25;36.22
19023;BME280;35226;48.606;8.858;2022-08-30T14:11:27;96294.78;;;31.25;35.43
19023;BME280;35226;48.606;8.858;2022-08-30T14:13:53;96291.38;;;31.44;36.04
19023;BME280;35226;48.606;8.858;2022-08-30T14:16:18;96290.84;;;31.63;35.26
19023;BME280;35226;48.606;8.858;2022-08-30T14:18:44;96291.31;;;31.52;34.36
19023;BME280;35226;48.606;8.858;2022-08-30T14:21:10;96292.06;;;31.52;35.22
19023;BME280;35226;48.606;8.858;2022-08-30T14:23:35;96285.97;;;31.73;34.61
19023;BME280;35226;48.606;8.858;2022-08-30T14:26:02;96290.09;;;31.63;35.53
19023;BME280;35226;48.606;8.858;2022-08-30T14:28:32;96284.38;;;31.63;34.84
19023;BME280;35226;48.606;8.858;2022-08-30T14:30:57;96276.13;;;31.67;35.75
19023;BME280;35226;48.606;8.858;2022-08-30T14:33:23;96283.78;;;31.22;35.18